sensor_id;sensor_type;location;lat;lon;timestamp;P1;durP1;ratioP1;P2;durP2;ratioP2
62071;SDS011;48031;48.542;13.232;2022-12-18T00:03:47;18.02;;;7.03;;
62071;SDS011;48031;48.542;13.232;2022-12-18T00:07:50;16.15;;;5.72;;
62071;SDS011;48031;48.542;13.232;2022-12-18T00:11:52;13.00;;;5.30;;
62071;SDS011;48031;48.542;13.232;2022-12-18T00:15:53;13.07;;;5.32;;
62071;SDS011;48031;48.542;13.232;2022-12-18T00:19:57;17.52;;;6.22;;
62071;SDS011;48031;48.542;13.232;2022-12-18T00:23:59;11.52;;;5.18;;
62071;SDS011;48031;48.542;13.232;2022-12-18T00:28:04;14.27;;;5.45;;
62071;SDS011;48031;48.542;13.232;2022-12-18T00:32:06;16.48;;;6.03;;
62071;SDS011;48031;48.542;13.232;2022-12-18T00:36:12;15.70;;;6.05;;
62071;SDS011;48031;48.542;13.232;2022-12-18T00:40:15;19.35;;;6.68;;
62071;SDS011;48031;48.542;13.232;2022-12-18T00:44:18;15.15;;;6.07;;
62071;SDS011;48031;48.542;13.232;2022-12-18T00:48:20;17.38;;;6.57;;
62071;SDS011;48031;48.542;13.232;2022-12-18T00:52:22;22.13;;;8.18;;
62071;SDS011;48031;48.542;13.232;2022-12-18T00:56:24;18.75;;;7.28;;
62071;SDS011;48031;48.542;13.232;2022-12-18T01:00:26;20.80;;;8.38;;
62071;SDS011;48031;48.542;13.232;2022-12-18T01:04:30;17.55;;;6.22;;
62071;SDS011;48031;48.542;13.232;2022-12-18T01:08:34;15.05;;;5.45;;
62071;SDS011;48031;48.542;13.232;2022-12-18T01:12:37;15.75;;;6.60;;
62071;SDS011;48031;48.542;13.232;2022-12-18T01:16:39;15.65;;;6.75;;
62071;SDS011;48031;48.542;13.232;2022-12-18T01:20:41;23.67;;;7.57;;
62071;SDS011;48031;48.542;13.232;2022-12-18T01:24:43;18.48;;;7.15;;
62071;SDS011;48031;48.542;13.232;2022-12-18T01:28:44;14.32;;;5.28;;
62071;SDS011;48031;48.542;13.232;2022-12-18T01:32:46;14.80;;;5.90;;
62071;SDS011;48031;48.542;13.232;2022-12-18T01:36:48;15.50;;;6.28;;
62071;SDS011;48031;48.542;13.232;2022-12-18T01:40:56;20.35;;;6.78;;
62071;SDS011;48031;48.542;13.232;2022-12-18T01:45:06;14.48;;;5.53;;
62071;SDS011;48031;48.542;13.232;2022-12-18T01:49:25;18.20;;;7.43;;
62071;SDS011;48031;48.542;13.232;2022-12-18T01:53:26;18.17;;;6.35;;
62071;SDS011;48031;48.542;13.232;2022-12-18T01:57:29;16.42;;;6.10;;
62071;SDS011;48031;48.542;13.232;2022-12-18T02:01:31;21.92;;;8.32;;
62071;SDS011;48031;48.542;13.232;2022-12-18T02:09:46;12.75;;;4.70;;
62071;SDS011;48031;48.542;13.232;2022-12-18T02:17:58;13.63;;;6.38;;
62071;SDS011;48031;48.542;13.232;2022-12-18T02:22:24;15.13;;;5.60;;
62071;SDS011;48031;48.542;13.232;2022-12-18T02:26:48;23.05;;;8.93;;
62071;SDS011;48031;48.542;13.232;2022-12-18T02:30:58;19.08;;;6.63;;
62071;SDS011;48031;48.542;13.232;2022-12-18T02:35:04;24.05;;;8.57;;
62071;SDS011;48031;48.542;13.232;2022-12-18T02:39:09;18.65;;;7.93;;
62071;SDS011;48031;48.542;13.232;2022-12-18T02:43:19;18.63;;;7.20;;
62071;SDS011;48031;48.542;13.232;2022-12-18T02:47:24;24.15;;;8.88;;
62071;SDS011;48031;48.542;13.232;2022-12-18T02:51:37;20.00;;;7.50;;
62071;SDS011;48031;48.542;13.232;2022-12-18T03:00:08;20.92;;;8.25;;
62071;SDS011;48031;48.542;13.232;2022-12-18T03:04:18;26.50;;;8.37;;
62071;SDS011;48031;48.542;13.232;2022-12-18T03:08:28;31.60;;;10.90;;
62071;SDS011;48031;48.542;13.232;2022-12-18T03:12:35;27.13;;;9.55;;
62071;SDS011;48031;48.542;13.232;2022-12-18T03:16:43;31.10;;;10.27;;
62071;SDS011;48031;48.542;13.232;2022-12-18T03:20:47;24.35;;;7.90;;
62071;SDS011;48031;48.542;13.232;2022-12-18T03:24:55;30.08;;;10.07;;
62071;SDS011;48031;48.542;13.232;2022-12-18T03:29:00;20.65;;;7.90;;
62071;SDS011;48031;48.542;13.232;2022-12-18T03:33:13;18.85;;;6.50;;
62071;SDS011;48031;48.542;13.232;2022-12-18T03:37:20;17.77;;;6.53;;
62071;SDS011;48031;48.542;13.232;2022-12-18T03:41:43;26.63;;;9.13;;
62071;SDS011;48031;48.542;13.232;2022-12-18T03:46:15;24.38;;;8.65;;
62071;SDS011;48031;48.542;13.232;2022-12-18T03:54:46;18.52;;;7.18;;
62071;SDS011;48031;48.542;13.232;2022-12-18T03:58:50;21.58;;;9.05;;
62071;SDS011;48031;48.542;13.232;2022-12-18T04:02:57;18.65;;;7.22;;
62071;SDS011;48031;48.542;13.232;2022-12-18T04:07:09;18.92;;;6.57;;
62071;SDS011;48031;48.542;13.232;2022-12-18T04:11:12;21.38;;;7.32;;
62071;SDS011;48031;48.542;13.232;2022-12-18T04:15:15;20.48;;;6.35;;
62071;SDS011;48031;48.542;13.232;2022-12-18T04:19:17;21.02;;;7.90;;
62071;SDS011;48031;48.542;13.232;2022-12-18T04:23:22;23.60;;;8.18;;
62071;SDS011;48031;48.542;13.232;2022-12-18T04:27:27;22.67;;;7.35;;
62071;SDS011;48031;48.542;13.232;2022-12-18T04:31:29;19.50;;;7.30;;
62071;SDS011;48031;48.542;13.232;2022-12-18T04:35:32;26.30;;;8.63;;
62071;SDS011;48031;48.542;13.232;2022-12-18T04:39:35;27.42;;;10.07;;
62071;SDS011;48031;48.542;13.232;2022-12-18T04:43:43;17.65;;;6.07;;
62071;SDS011;48031;48.542;13.232;2022-12-18T04:47:45;25.48;;;8.77;;
62071;SDS011;48031;48.542;13.232;2022-12-18T04:51:47;28.35;;;9.43;;
62071;SDS011;48031;48.542;13.232;2022-12-18T04:55:49;31.48;;;9.85;;
62071;SDS011;48031;48.542;13.232;2022-12-18T04:59:51;25.60;;;9.32;;
62071;SDS011;48031;48.542;13.232;2022-12-18T05:03:54;23.80;;;7.45;;
62071;SDS011;48031;48.542;13.232;2022-12-18T05:07:56;20.52;;;6.90;;
62071;SDS011;48031;48.542;13.232;2022-12-18T05:11:58;19.55;;;6.65;;
62071;SDS011;48031;48.542;13.232;2022-12-18T05:16:00;17.38;;;5.75;;
62071;SDS011;48031;48.542;13.232;2022-12-18T05:20:02;19.75;;;7.13;;
62071;SDS011;48031;48.542;13.232;2022-12-18T05:24:05;23.88;;;8.25;;
62071;SDS011;48031;48.542;13.232;2022-12-18T05:28:07;18.52;;;7.15;;
62071;SDS011;48031;48.542;13.232;2022-12-18T05:32:09;14.45;;;5.97;;
62071;SDS011;48031;48.542;13.232;2022-12-18T05:36:11;20.00;;;7.40;;
62071;SDS011;48031;48.542;13.232;2022-12-18T05:40:13;18.88;;;7.10;;
62071;SDS011;48031;48.542;13.232;2022-12-18T05:44:15;21.42;;;7.93;;
62071;SDS011;48031;48.542;13.232;2022-12-18T05:48:17;22.25;;;8.10;;
62071;SDS011;48031;48.542;13.232;2022-12-18T05:52:19;20.05;;;7.35;;
62071;SDS011;48031;48.542;13.232;2022-12-18T05:56:21;21.98;;;7.40;;
62071;SDS011;48031;48.542;13.232;2022-12-18T06:00:24;17.45;;;6.72;;
62071;SDS011;48031;48.542;13.232;2022-12-18T06:04:27;19.77;;;8.15;;
62071;SDS011;48031;48.542;13.232;2022-12-18T06:08:32;16.48;;;6.57;;
62071;SDS011;48031;48.542;13.232;2022-12-18T06:12:34;18.60;;;6.57;;
62071;SDS011;48031;48.542;13.232;2022-12-18T06:16:36;17.58;;;7.25;;
62071;SDS011;48031;48.542;13.232;2022-12-18T06:20:38;12.90;;;4.93;;
62071;SDS011;48031;48.542;13.232;2022-12-18T06:24:42;14.50;;;5.90;;
62071;SDS011;48031;48.542;13.232;2022-12-18T06:28:44;20.42;;;7.13;;
62071;SDS011;48031;48.542;13.232;2022-12-18T06:32:47;12.20;;;4.90;;
62071;SDS011;48031;48.542;13.232;2022-12-18T06:36:56;14.85;;;5.75;;
62071;SDS011;48031;48.542;13.232;2022-12-18T06:40:58;12.60;;;5.32;;
62071;SDS011;48031;48.542;13.232;2022-12-18T06:45:00;17.40;;;6.78;;
62071;SDS011;48031;48.542;13.232;2022-12-18T06:49:02;10.90;;;4.72;;
62071;SDS011;48031;48.542;13.232;2022-12-18T06:53:04;15.35;;;5.47;;
62071;SDS011;48031;48.542;13.232;2022-12-18T06:57:07;14.38;;;5.60;;
62071;SDS011;48031;48.542;13.232;2022-12-18T07:01:10;19.48;;;7.57;;
62071;SDS011;48031;48.542;13.232;2022-12-18T07:05:12;19.95;;;7.07;;
62071;SDS011;48031;48.542;13.232;2022-12-18T07:09:14;15.45;;;6.20;;
62071;SDS011;48031;48.542;13.232;2022-12-18T07:13:16;15.23;;;6.45;;
62071;SDS011;48031;48.542;13.232;2022-12-18T07:17:18;11.73;;;5.03;;
62071;SDS011;48031;48.542;13.232;2022-12-18T07:21:20;17.75;;;6.72;;
62071;SDS011;48031;48.542;13.232;2022-12-18T07:25:22;16.70;;;6.72;;
62071;SDS011;48031;48.542;13.232;2022-12-18T07:29:24;14.75;;;5.53;;
62071;SDS011;48031;48.542;13.232;2022-12-18T07:33:26;13.80;;;6.03;;
62071;SDS011;48031;48.542;13.232;2022-12-18T07:37:29;19.08;;;7.55;;
62071;SDS011;48031;48.542;13.232;2022-12-18T07:41:31;13.73;;;5.32;;
62071;SDS011;48031;48.542;13.232;2022-12-18T07:45:42;15.88;;;7.13;;
62071;SDS011;48031;48.542;13.232;2022-12-18T07:49:44;12.70;;;5.10;;
62071;SDS011;48031;48.542;13.232;2022-12-18T07:53:46;18.48;;;7.97;;
62071;SDS011;48031;48.542;13.232;2022-12-18T07:57:52;22.85;;;7.65;;
62071;SDS011;48031;48.542;13.232;2022-12-18T08:02:01;12.90;;;5.90;;
62071;SDS011;48031;48.542;13.232;2022-12-18T08:06:04;13.18;;;6.20;;
62071;SDS011;48031;48.542;13.232;2022-12-18T08:10:08;19.55;;;7.45;;
62071;SDS011;48031;48.542;13.232;2022-12-18T08:14:10;17.08;;;6.38;;
62071;SDS011;48031;48.542;13.232;2022-12-18T08:18:11;15.35;;;6.15;;
62071;SDS011;48031;48.542;13.232;2022-12-18T08:22:15;14.38;;;6.05;;
62071;SDS011;48031;48.542;13.232;2022-12-18T08:26:16;19.42;;;7.22;;
62071;SDS011;48031;48.542;13.232;2022-12-18T08:30:19;17.63;;;7.78;;
62071;SDS011;48031;48.542;13.232;2022-12-18T08:34:21;21.25;;;8.60;;
62071;SDS011;48031;48.542;13.232;2022-12-18T08:38:23;18.88;;;7.45;;
62071;SDS011;48031;48.542;13.232;2022-12-18T08:42:25;17.02;;;6.55;;
62071;SDS011;48031;48.542;13.232;2022-12-18T08:46:45;16.83;;;7.75;;
62071;SDS011;48031;48.542;13.232;2022-12-18T08:50:54;15.65;;;7.28;;
62071;SDS011;48031;48.542;13.232;2022-12-18T08:54:59;13.43;;;5.47;;
62071;SDS011;48031;48.542;13.232;2022-12-18T08:59:01;15.43;;;6.35;;
62071;SDS011;48031;48.542;13.232;2022-12-18T09:03:03;15.02;;;6.63;;
62071;SDS011;48031;48.542;13.232;2022-12-18T09:07:04;18.95;;;7.10;;
62071;SDS011;48031;48.542;13.232;2022-12-18T09:11:11;16.10;;;6.20;;
62071;SDS011;48031;48.542;13.232;2022-12-18T09:15:14;21.98;;;8.38;;
62071;SDS011;48031;48.542;13.232;2022-12-18T09:19:16;18.33;;;7.38;;
62071;SDS011;48031;48.542;13.232;2022-12-18T09:23:18;16.58;;;6.53;;
62071;SDS011;48031;48.542;13.232;2022-12-18T09:27:20;20.13;;;7.38;;
62071;SDS011;48031;48.542;13.232;2022-12-18T09:31:23;17.17;;;7.70;;
62071;SDS011;48031;48.542;13.232;2022-12-18T09:35:26;15.88;;;6.82;;
62071;SDS011;48031;48.542;13.232;2022-12-18T09:39:29;24.25;;;8.35;;
62071;SDS011;48031;48.542;13.232;2022-12-18T09:43:34;20.85;;;8.73;;
62071;SDS011;48031;48.542;13.232;2022-12-18T09:47:42;24.58;;;9.52;;
62071;SDS011;48031;48.542;13.232;2022-12-18T09:51:47;21.65;;;9.18;;
62071;SDS011;48031;48.542;13.232;2022-12-18T09:55:54;17.88;;;8.13;;
62071;SDS011;48031;48.542;13.232;2022-12-18T10:00:08;22.60;;;9.00;;
62071;SDS011;48031;48.542;13.232;2022-12-18T10:04:15;17.05;;;7.85;;
62071;SDS011;48031;48.542;13.232;2022-12-18T10:21:58;19.02;;;8.30;;
62071;SDS011;48031;48.542;13.232;2022-12-18T10:26:05;16.77;;;7.75;;
62071;SDS011;48031;48.542;13.232;2022-12-18T10:30:12;22.67;;;8.75;;
62071;SDS011;48031;48.542;13.232;2022-12-18T10:34:16;20.08;;;8.65;;
62071;SDS011;48031;48.542;13.232;2022-12-18T10:42:20;26.67;;;9.05;;
62071;SDS011;48031;48.542;13.232;2022-12-18T10:46:22;22.35;;;9.25;;
62071;SDS011;48031;48.542;13.232;2022-12-18T10:50:26;18.45;;;8.48;;
62071;SDS011;48031;48.542;13.232;2022-12-18T10:54:52;20.35;;;7.65;;
62071;SDS011;48031;48.542;13.232;2022-12-18T10:59:08;20.85;;;8.32;;
62071;SDS011;48031;48.542;13.232;2022-12-18T11:03:28;17.27;;;8.68;;
62071;SDS011;48031;48.542;13.232;2022-12-18T11:08:07;16.75;;;7.80;;
62071;SDS011;48031;48.542;13.232;2022-12-18T11:12:02;15.20;;;7.53;;
62071;SDS011;48031;48.542;13.232;2022-12-18T11:16:07;18.77;;;8.53;;
62071;SDS011;48031;48.542;13.232;2022-12-18T11:20:20;17.55;;;7.40;;
62071;SDS011;48031;48.542;13.232;2022-12-18T11:24:30;15.90;;;7.75;;
62071;SDS011;48031;48.542;13.232;2022-12-18T11:33:09;14.15;;;7.30;;
62071;SDS011;48031;48.542;13.232;2022-12-18T11:37:16;10.30;;;6.10;;
62071;SDS011;48031;48.542;13.232;2022-12-18T11:41:32;12.48;;;6.82;;
62071;SDS011;48031;48.542;13.232;2022-12-18T11:46:00;11.93;;;6.95;;
62071;SDS011;48031;48.542;13.232;2022-12-18T11:50:17;11.57;;;6.88;;
62071;SDS011;48031;48.542;13.232;2022-12-18T11:54:23;11.38;;;7.43;;
62071;SDS011;48031;48.542;13.232;2022-12-18T12:07:06;9.20;;;5.88;;
62071;SDS011;48031;48.542;13.232;2022-12-18T12:11:31;7.80;;;5.40;;
62071;SDS011;48031;48.542;13.232;2022-12-18T12:24:43;10.90;;;7.10;;
62071;SDS011;48031;48.542;13.232;2022-12-18T12:29:27;13.40;;;8.35;;
62071;SDS011;48031;48.542;13.232;2022-12-18T12:33:50;12.82;;;7.68;;
62071;SDS011;48031;48.542;13.232;2022-12-18T12:38:03;13.20;;;8.02;;
62071;SDS011;48031;48.542;13.232;2022-12-18T12:42:15;11.53;;;7.80;;
62071;SDS011;48031;48.542;13.232;2022-12-18T12:46:44;10.80;;;6.80;;
62071;SDS011;48031;48.542;13.232;2022-12-18T12:50:47;13.40;;;7.72;;
62071;SDS011;48031;48.542;13.232;2022-12-18T12:54:51;13.30;;;8.75;;
62071;SDS011;48031;48.542;13.232;2022-12-18T12:58:56;15.50;;;8.68;;
62071;SDS011;48031;48.542;13.232;2022-12-18T13:07:39;13.32;;;7.82;;
62071;SDS011;48031;48.542;13.232;2022-12-18T13:11:47;14.38;;;8.07;;
62071;SDS011;48031;48.542;13.232;2022-12-18T13:16:08;11.68;;;7.30;;
62071;SDS011;48031;48.542;13.232;2022-12-18T13:20:12;13.07;;;8.25;;
62071;SDS011;48031;48.542;13.232;2022-12-18T13:24:23;11.73;;;8.65;;
62071;SDS011;48031;48.542;13.232;2022-12-18T13:32:35;12.55;;;9.23;;
62071;SDS011;48031;48.542;13.232;2022-12-18T13:36:37;10.85;;;7.95;;
62071;SDS011;48031;48.542;13.232;2022-12-18T13:44:40;10.02;;;6.32;;
62071;SDS011;48031;48.542;13.232;2022-12-18T13:48:48;11.55;;;7.10;;
62071;SDS011;48031;48.542;13.232;2022-12-18T13:52:55;8.32;;;5.70;;
62071;SDS011;48031;48.542;13.232;2022-12-18T13:56:57;10.50;;;5.25;;
62071;SDS011;48031;48.542;13.232;2022-12-18T14:00:59;9.43;;;5.13;;
62071;SDS011;48031;48.542;13.232;2022-12-18T14:05:01;11.15;;;6.50;;
62071;SDS011;48031;48.542;13.232;2022-12-18T14:09:04;13.55;;;6.90;;
62071;SDS011;48031;48.542;13.232;2022-12-18T14:13:10;12.40;;;5.80;;
62071;SDS011;48031;48.542;13.232;2022-12-18T14:17:18;10.10;;;5.35;;
62071;SDS011;48031;48.542;13.232;2022-12-18T14:21:26;11.15;;;6.40;;
62071;SDS011;48031;48.542;13.232;2022-12-18T14:25:30;7.22;;;4.38;;
62071;SDS011;48031;48.542;13.232;2022-12-18T14:29:34;9.90;;;5.35;;
62071;SDS011;48031;48.542;13.232;2022-12-18T14:33:36;11.35;;;5.68;;
62071;SDS011;48031;48.542;13.232;2022-12-18T14:37:40;10.82;;;5.55;;
62071;SDS011;48031;48.542;13.232;2022-12-18T14:41:41;7.82;;;4.25;;
62071;SDS011;48031;48.542;13.232;2022-12-18T14:45:43;7.22;;;4.20;;
62071;SDS011;48031;48.542;13.232;2022-12-18T14:49:48;11.10;;;5.70;;
62071;SDS011;48031;48.542;13.232;2022-12-18T14:53:53;10.93;;;5.05;;
62071;SDS011;48031;48.542;13.232;2022-12-18T14:57:58;10.13;;;5.60;;
62071;SDS011;48031;48.542;13.232;2022-12-18T15:06:37;18.27;;;7.85;;
62071;SDS011;48031;48.542;13.232;2022-12-18T15:10:46;18.58;;;8.52;;
62071;SDS011;48031;48.542;13.232;2022-12-18T15:14:48;14.73;;;7.10;;
62071;SDS011;48031;48.542;13.232;2022-12-18T15:18:51;15.57;;;6.80;;
62071;SDS011;48031;48.542;13.232;2022-12-18T15:22:54;12.13;;;5.80;;
62071;SDS011;48031;48.542;13.232;2022-12-18T15:26:56;14.82;;;6.63;;
62071;SDS011;48031;48.542;13.232;2022-12-18T15:30:59;18.80;;;8.55;;
62071;SDS011;48031;48.542;13.232;2022-12-18T15:39:12;20.38;;;9.60;;
62071;SDS011;48031;48.542;13.232;2022-12-18T15:43:14;19.45;;;7.43;;
62071;SDS011;48031;48.542;13.232;2022-12-18T15:47:35;17.05;;;7.22;;
62071;SDS011;48031;48.542;13.232;2022-12-18T15:51:36;22.45;;;10.10;;
62071;SDS011;48031;48.542;13.232;2022-12-18T15:55:39;21.27;;;7.30;;
62071;SDS011;48031;48.542;13.232;2022-12-18T16:00:01;16.20;;;7.47;;
62071;SDS011;48031;48.542;13.232;2022-12-18T16:04:05;28.73;;;11.85;;
62071;SDS011;48031;48.542;13.232;2022-12-18T16:08:07;26.90;;;10.45;;
62071;SDS011;48031;48.542;13.232;2022-12-18T16:12:17;33.20;;;13.10;;
62071;SDS011;48031;48.542;13.232;2022-12-18T16:16:20;20.52;;;9.93;;
62071;SDS011;48031;48.542;13.232;2022-12-18T16:20:23;21.27;;;9.55;;
62071;SDS011;48031;48.542;13.232;2022-12-18T16:24:27;28.80;;;10.70;;
62071;SDS011;48031;48.542;13.232;2022-12-18T16:28:30;24.17;;;9.20;;
62071;SDS011;48031;48.542;13.232;2022-12-18T16:32:32;25.83;;;10.40;;
62071;SDS011;48031;48.542;13.232;2022-12-18T16:36:34;23.35;;;10.20;;
62071;SDS011;48031;48.542;13.232;2022-12-18T16:40:35;21.77;;;9.45;;
62071;SDS011;48031;48.542;13.232;2022-12-18T16:44:59;17.70;;;8.00;;
62071;SDS011;48031;48.542;13.232;2022-12-18T16:49:00;28.38;;;11.80;;
62071;SDS011;48031;48.542;13.232;2022-12-18T16:53:02;25.58;;;10.10;;
62071;SDS011;48031;48.542;13.232;2022-12-18T16:57:04;22.60;;;9.27;;
62071;SDS011;48031;48.542;13.232;2022-12-18T17:01:07;26.70;;;10.32;;
62071;SDS011;48031;48.542;13.232;2022-12-18T17:05:10;19.55;;;8.50;;
62071;SDS011;48031;48.542;13.232;2022-12-18T17:09:13;24.65;;;9.80;;
62071;SDS011;48031;48.542;13.232;2022-12-18T17:13:16;22.13;;;9.27;;
62071;SDS011;48031;48.542;13.232;2022-12-18T17:17:25;24.92;;;11.40;;
62071;SDS011;48031;48.542;13.232;2022-12-18T17:21:27;27.65;;;11.80;;
62071;SDS011;48031;48.542;13.232;2022-12-18T17:25:29;21.42;;;9.40;;
62071;SDS011;48031;48.542;13.232;2022-12-18T17:29:31;18.13;;;7.65;;
62071;SDS011;48031;48.542;13.232;2022-12-18T17:33:33;16.70;;;7.22;;
62071;SDS011;48031;48.542;13.232;2022-12-18T17:37:35;25.52;;;10.10;;
62071;SDS011;48031;48.542;13.232;2022-12-18T17:41:37;23.15;;;9.57;;
62071;SDS011;48031;48.542;13.232;2022-12-18T17:45:39;20.70;;;9.25;;
62071;SDS011;48031;48.542;13.232;2022-12-18T17:49:41;18.67;;;8.32;;
62071;SDS011;48031;48.542;13.232;2022-12-18T17:53:43;22.83;;;9.65;;
62071;SDS011;48031;48.542;13.232;2022-12-18T17:57:45;22.52;;;8.80;;
62071;SDS011;48031;48.542;13.232;2022-12-18T18:01:48;22.23;;;9.10;;
62071;SDS011;48031;48.542;13.232;2022-12-18T18:05:56;20.25;;;8.32;;
62071;SDS011;48031;48.542;13.232;2022-12-18T18:09:58;25.42;;;10.05;;
62071;SDS011;48031;48.542;13.232;2022-12-18T18:14:00;22.30;;;9.57;;
62071;SDS011;48031;48.542;13.232;2022-12-18T18:18:04;22.90;;;9.23;;
62071;SDS011;48031;48.542;13.232;2022-12-18T18:22:06;22.83;;;9.93;;
62071;SDS011;48031;48.542;13.232;2022-12-18T18:26:08;21.33;;;9.60;;
62071;SDS011;48031;48.542;13.232;2022-12-18T18:30:10;22.38;;;9.82;;
62071;SDS011;48031;48.542;13.232;2022-12-18T18:34:16;18.23;;;8.55;;
62071;SDS011;48031;48.542;13.232;2022-12-18T18:38:19;22.40;;;8.98;;
62071;SDS011;48031;48.542;13.232;2022-12-18T18:42:21;25.83;;;9.93;;
62071;SDS011;48031;48.542;13.232;2022-12-18T18:46:23;22.67;;;9.43;;
62071;SDS011;48031;48.542;13.232;2022-12-18T18:50:25;19.00;;;8.88;;
62071;SDS011;48031;48.542;13.232;2022-12-18T18:54:27;20.08;;;9.60;;
62071;SDS011;48031;48.542;13.232;2022-12-18T18:58:31;19.98;;;9.25;;
62071;SDS011;48031;48.542;13.232;2022-12-18T19:02:34;23.88;;;9.73;;
62071;SDS011;48031;48.542;13.232;2022-12-18T19:06:36;24.38;;;9.90;;
62071;SDS011;48031;48.542;13.232;2022-12-18T19:10:40;23.00;;;9.18;;
62071;SDS011;48031;48.542;13.232;2022-12-18T19:14:42;24.25;;;11.07;;
62071;SDS011;48031;48.542;13.232;2022-12-18T19:18:44;20.50;;;9.23;;
62071;SDS011;48031;48.542;13.232;2022-12-18T19:22:46;22.88;;;9.70;;
62071;SDS011;48031;48.542;13.232;2022-12-18T19:26:56;24.05;;;9.23;;
62071;SDS011;48031;48.542;13.232;2022-12-18T19:30:59;22.52;;;10.50;;
62071;SDS011;48031;48.542;13.232;2022-12-18T19:35:03;23.85;;;9.10;;
62071;SDS011;48031;48.542;13.232;2022-12-18T19:39:10;23.27;;;10.23;;
62071;SDS011;48031;48.542;13.232;2022-12-18T19:43:13;26.83;;;11.63;;
62071;SDS011;48031;48.542;13.232;2022-12-18T19:47:16;25.15;;;9.45;;
62071;SDS011;48031;48.542;13.232;2022-12-18T19:51:22;27.35;;;11.15;;
62071;SDS011;48031;48.542;13.232;2022-12-18T19:55:25;18.20;;;8.38;;
62071;SDS011;48031;48.542;13.232;2022-12-18T19:59:27;24.15;;;8.65;;
62071;SDS011;48031;48.542;13.232;2022-12-18T20:03:29;25.17;;;9.77;;
62071;SDS011;48031;48.542;13.232;2022-12-18T20:07:33;22.27;;;8.98;;
62071;SDS011;48031;48.542;13.232;2022-12-18T20:11:35;24.35;;;10.35;;
62071;SDS011;48031;48.542;13.232;2022-12-18T20:15:42;24.25;;;9.73;;
62071;SDS011;48031;48.542;13.232;2022-12-18T20:19:46;21.98;;;9.60;;
62071;SDS011;48031;48.542;13.232;2022-12-18T20:23:47;25.25;;;10.50;;
62071;SDS011;48031;48.542;13.232;2022-12-18T20:27:49;21.77;;;9.40;;
62071;SDS011;48031;48.542;13.232;2022-12-18T20:31:51;20.13;;;7.90;;
62071;SDS011;48031;48.542;13.232;2022-12-18T20:35:58;20.13;;;8.48;;
62071;SDS011;48031;48.542;13.232;2022-12-18T20:40:03;23.60;;;10.75;;
62071;SDS011;48031;48.542;13.232;2022-12-18T20:44:07;24.45;;;9.63;;
62071;SDS011;48031;48.542;13.232;2022-12-18T20:48:24;20.92;;;7.97;;
62071;SDS011;48031;48.542;13.232;2022-12-18T20:52:27;23.42;;;10.27;;
62071;SDS011;48031;48.542;13.232;2022-12-18T20:56:28;25.20;;;9.82;;
62071;SDS011;48031;48.542;13.232;2022-12-18T21:00:33;24.98;;;10.25;;
62071;SDS011;48031;48.542;13.232;2022-12-18T21:04:35;22.83;;;9.13;;
62071;SDS011;48031;48.542;13.232;2022-12-18T21:08:37;25.70;;;9.77;;
62071;SDS011;48031;48.542;13.232;2022-12-18T21:12:42;23.42;;;9.60;;
62071;SDS011;48031;48.542;13.232;2022-12-18T21:16:59;18.98;;;7.65;;
62071;SDS011;48031;48.542;13.232;2022-12-18T21:21:02;19.58;;;8.30;;
62071;SDS011;48031;48.542;13.232;2022-12-18T21:25:04;26.23;;;10.07;;
62071;SDS011;48031;48.542;13.232;2022-12-18T21:29:07;25.25;;;9.80;;
62071;SDS011;48031;48.542;13.232;2022-12-18T21:33:11;17.23;;;7.40;;
62071;SDS011;48031;48.542;13.232;2022-12-18T21:37:13;25.25;;;10.23;;
62071;SDS011;48031;48.542;13.232;2022-12-18T21:41:15;19.83;;;8.38;;
62071;SDS011;48031;48.542;13.232;2022-12-18T21:45:42;16.02;;;7.70;;
62071;SDS011;48031;48.542;13.232;2022-12-18T21:49:44;24.80;;;9.82;;
62071;SDS011;48031;48.542;13.232;2022-12-18T21:53:46;24.95;;;10.43;;
62071;SDS011;48031;48.542;13.232;2022-12-18T21:57:49;18.48;;;7.65;;
62071;SDS011;48031;48.542;13.232;2022-12-18T22:01:51;26.10;;;10.27;;
62071;SDS011;48031;48.542;13.232;2022-12-18T22:05:56;25.20;;;10.30;;
62071;SDS011;48031;48.542;13.232;2022-12-18T22:10:10;25.90;;;10.15;;
62071;SDS011;48031;48.542;13.232;2022-12-18T22:14:11;22.42;;;10.20;;
62071;SDS011;48031;48.542;13.232;2022-12-18T22:18:15;22.33;;;9.02;;
62071;SDS011;48031;48.542;13.232;2022-12-18T22:22:17;22.67;;;10.05;;
62071;SDS011;48031;48.542;13.232;2022-12-18T22:26:24;29.10;;;10.20;;
62071;SDS011;48031;48.542;13.232;2022-12-18T22:30:26;24.13;;;9.93;;
62071;SDS011;48031;48.542;13.232;2022-12-18T22:34:28;22.75;;;9.18;;
62071;SDS011;48031;48.542;13.232;2022-12-18T22:38:36;24.33;;;8.57;;
62071;SDS011;48031;48.542;13.232;2022-12-18T22:42:38;21.65;;;8.50;;
62071;SDS011;48031;48.542;13.232;2022-12-18T22:46:44;26.48;;;9.45;;
62071;SDS011;48031;48.542;13.232;2022-12-18T22:50:51;20.60;;;8.63;;
62071;SDS011;48031;48.542;13.232;2022-12-18T22:54:58;19.98;;;7.80;;
62071;SDS011;48031;48.542;13.232;2022-12-18T22:59:02;27.17;;;10.80;;
62071;SDS011;48031;48.542;13.232;2022-12-18T23:03:05;22.45;;;9.25;;
62071;SDS011;48031;48.542;13.232;2022-12-18T23:07:07;24.33;;;10.73;;
62071;SDS011;48031;48.542;13.232;2022-12-18T23:11:16;19.73;;;7.80;;
62071;SDS011;48031;48.542;13.232;2022-12-18T23:15:18;18.33;;;8.00;;
62071;SDS011;48031;48.542;13.232;2022-12-18T23:19:28;29.30;;;10.85;;
62071;SDS011;48031;48.542;13.232;2022-12-18T23:23:31;24.35;;;9.85;;
62071;SDS011;48031;48.542;13.232;2022-12-18T23:27:34;23.13;;;10.00;;
62071;SDS011;48031;48.542;13.232;2022-12-18T23:31:36;22.15;;;9.02;;
62071;SDS011;48031;48.542;13.232;2022-12-18T23:35:39;25.13;;;9.93;;
62071;SDS011;48031;48.542;13.232;2022-12-18T23:39:41;25.65;;;10.35;;
62071;SDS011;48031;48.542;13.232;2022-12-18T23:43:43;29.67;;;12.35;;
62071;SDS011;48031;48.542;13.232;2022-12-18T23:47:47;21.25;;;8.35;;
62071;SDS011;48031;48.542;13.232;2022-12-18T23:51:52;22.00;;;7.97;;
62071;SDS011;48031;48.542;13.232;2022-12-18T23:55:55;31.23;;;11.00;;
62071;SDS011;48031;48.542;13.232;2022-12-18T23:59:59;26.00;;;10.30;;
